createdAt,value
2018-05-14T00:00:05.854Z,"    0"
2018-05-14T00:05:01.462Z,"    0"
2018-05-14T00:09:57.386Z,"    0"
2018-05-14T00:14:53.733Z,"    0"
2018-05-14T00:19:49.650Z,"    0"
2018-05-14T00:24:45.218Z,"    0"
2018-05-14T00:29:41.336Z,"    0"
2018-05-14T00:34:37.240Z,"    0"
2018-05-14T00:39:34.140Z,"    0"
2018-05-14T00:44:29.719Z,"    0"
2018-05-14T00:49:25.618Z,"    0"
2018-05-14T00:54:21.607Z,"    0"
2018-05-14T00:59:17.550Z,"    0"
2018-05-14T01:04:14.821Z,"    0"
2018-05-14T01:09:10.798Z,"    0"
2018-05-14T01:14:07.762Z,"    0"
2018-05-14T01:19:03.264Z,"    0"
2018-05-14T01:23:59.099Z,"    0"
2018-05-14T01:28:55.903Z,"    0"
2018-05-14T01:33:51.565Z,"    0"
2018-05-14T01:38:48.451Z,"    0"
2018-05-14T01:43:43.950Z,"    0"
2018-05-14T01:48:39.750Z,"    0"
2018-05-14T01:53:35.851Z,"    0"
2018-05-14T01:58:31.438Z,"    0"
2018-05-14T02:03:27.000Z,"    0"
2018-05-14T02:08:23.758Z,"    0"
2018-05-14T02:13:19.476Z,"    0"
2018-05-14T02:18:15.496Z,"    0"
2018-05-14T02:23:10.803Z,"    0"
2018-05-14T02:28:06.940Z,"    0"
2018-05-14T02:33:02.770Z,"    0"
2018-05-14T02:37:58.433Z,"    0"
2018-05-14T02:42:54.793Z,"    0"
2018-05-14T02:47:50.551Z,"    0"
2018-05-14T02:52:46.589Z,"    0"
2018-05-14T02:57:42.265Z,"    0"
2018-05-14T03:02:38.501Z,"    4"
2018-05-14T03:07:34.152Z,"    4"
2018-05-14T03:12:31.376Z,"    4"
2018-05-14T03:17:27.822Z,"   12"
2018-05-14T03:22:23.352Z,"   20"
2018-05-14T03:27:19.487Z,"   40"
2018-05-14T03:32:15.155Z,"   68"
2018-05-14T03:37:11.990Z,"   96"
2018-05-14T03:42:08.021Z,"  160"
2018-05-14T03:47:03.802Z,"  176"
2018-05-14T03:51:59.409Z,"  264"
2018-05-14T03:56:55.267Z,"  256"
2018-05-14T04:01:51.820Z,"  412"
2018-05-14T04:06:47.676Z,"  448"
2018-05-14T04:11:44.525Z,"  432"
2018-05-14T04:16:42.632Z,"  556"
2018-05-14T04:21:38.628Z,"  728"
2018-05-14T04:26:34.766Z,"  744"
2018-05-14T04:31:30.436Z,"  860"
2018-05-14T04:36:26.435Z," 1052"
2018-05-14T04:41:22.271Z," 1416"
2018-05-14T04:46:17.962Z," 1840"
2018-05-14T04:51:13.895Z," 1712"
2018-05-14T04:56:09.577Z," 2220"
2018-05-14T05:01:05.410Z," 2252"
2018-05-14T05:06:01.019Z," 4272"
2018-05-14T05:11:01.053Z," 3380"
2018-05-14T05:15:55.956Z," 2568"
2018-05-14T05:20:52.755Z," 4284"
2018-05-14T05:25:52.123Z," 4244"
2018-05-14T05:30:48.065Z," 4212"
2018-05-14T05:35:43.951Z," 3588"
2018-05-14T05:40:40.873Z," 4928"
2018-05-14T05:45:36.849Z," 4584"
2018-05-14T05:50:34.011Z," 4564"
2018-05-14T05:55:29.613Z," 4264"
2018-05-14T06:00:25.674Z," 5376"
2018-05-14T06:05:22.591Z," 6256"
2018-05-14T06:10:19.498Z," 8916"
2018-05-14T06:15:15.826Z," 9532"
2018-05-14T06:20:12.151Z," 9816"
2018-05-14T06:25:09.209Z,10668
2018-05-14T06:30:05.223Z,10124
2018-05-14T06:35:01.958Z," 7100"
2018-05-14T06:39:57.684Z," 7596"
2018-05-14T06:44:53.373Z," 7068"
2018-05-14T06:49:50.078Z," 6968"
2018-05-14T06:54:46.482Z," 7500"
2018-05-14T06:59:42.125Z," 7432"
2018-05-14T07:04:38.108Z," 7076"
2018-05-14T07:09:33.889Z," 7356"
2018-05-14T07:14:30.107Z," 7792"
2018-05-14T07:19:26.141Z," 8172"
2018-05-14T07:24:22.112Z," 8460"
2018-05-14T07:29:18.363Z," 8644"
2018-05-14T07:34:14.183Z," 8240"
2018-05-14T07:39:11.479Z," 7796"
2018-05-14T07:44:06.889Z," 8096"
2018-05-14T07:49:03.383Z,52256
2018-05-14T07:54:02.182Z,49504
2018-05-14T07:59:00.794Z,52960
2018-05-14T08:03:58.739Z,57920
2018-05-14T08:08:55.746Z,57856
2018-05-14T08:13:53.432Z,48224
2018-05-14T08:18:49.595Z,54976
2018-05-14T08:23:46.173Z,55072
2018-05-14T08:28:43.102Z,66816
2018-05-14T08:33:39.808Z,58048
2018-05-14T08:38:37.445Z,54112
2018-05-14T08:43:34.545Z,65568
2018-05-14T08:48:30.128Z,22112
2018-05-14T08:53:24.482Z,32384
2018-05-14T08:58:19.649Z,33280
2018-05-14T09:03:16.687Z,53504
2018-05-14T09:08:12.660Z,26944
2018-05-14T09:13:08.359Z,67040
2018-05-14T09:18:07.979Z,64352
2018-05-14T09:23:03.874Z,65504
2018-05-14T09:28:00.505Z,78528
2018-05-14T09:32:57.105Z,80640
2018-05-14T09:37:53.217Z,70944
2018-05-14T09:42:49.440Z,70016
2018-05-14T09:47:45.557Z,79904
2018-05-14T09:52:41.901Z,76224
2018-05-14T09:57:38.927Z,70976
2018-05-14T10:02:34.372Z,79296
2018-05-14T10:07:31.329Z,70400
2018-05-14T10:12:27.601Z,75936
2018-05-14T10:17:23.512Z,67936
2018-05-14T10:22:19.656Z,82016
2018-05-14T10:27:16.333Z,81632
2018-05-14T10:32:13.503Z,52544
2018-05-14T10:37:09.852Z,70848
2018-05-14T10:42:06.131Z,84640
2018-05-14T10:47:02.541Z,74368
2018-05-14T10:51:59.625Z,61120
2018-05-14T10:56:56.086Z,68000
2018-05-14T11:01:52.022Z,68000
2018-05-14T11:06:48.705Z,93536
2018-05-14T11:11:46.223Z,70368
2018-05-14T11:16:43.064Z,80512
2018-05-14T11:21:44.017Z,73376
2018-05-14T11:26:39.503Z,79232
2018-05-14T11:31:37.322Z,96544
2018-05-14T11:36:33.599Z,97568
2018-05-14T11:41:30.185Z,81376
2018-05-14T11:46:27.035Z,74816
2018-05-14T11:51:22.728Z,87808
2018-05-14T11:56:18.698Z,92608
2018-05-14T12:01:15.742Z,92384
2018-05-14T12:06:12.689Z,91104
2018-05-14T12:11:09.048Z,101248
2018-05-14T12:16:06.141Z,76416
2018-05-14T12:21:02.027Z,63744
2018-05-14T12:25:57.964Z,65696
2018-05-14T12:30:54.031Z,63616
2018-05-14T12:35:50.472Z,66752
2018-05-14T12:40:46.377Z,87360
2018-05-14T12:45:41.444Z,104320
2018-05-14T12:50:36.471Z,63392
2018-05-14T12:55:30.735Z,49632
2018-05-14T13:00:28.399Z,68768
2018-05-14T13:05:25.977Z,58432
2018-05-14T13:10:21.708Z,61888
2018-05-14T13:15:17.226Z,65312
2018-05-14T13:20:12.818Z,71232
2018-05-14T13:25:09.459Z,83392
2018-05-14T13:30:04.644Z,69376
2018-05-14T13:35:01.323Z,72608
2018-05-14T13:39:57.471Z,59200
2018-05-14T13:44:54.290Z,14984
2018-05-14T13:49:48.967Z,57312
2018-05-14T13:54:45.131Z," 4380"
2018-05-14T13:59:41.011Z," 6996"
2018-05-14T14:04:36.590Z," 6168"
2018-05-14T14:09:33.664Z," 4600"
2018-05-14T14:14:29.985Z," 3936"
2018-05-14T14:19:25.152Z," 3888"
2018-05-14T14:24:20.801Z," 3700"
2018-05-14T14:29:16.404Z," 3560"
2018-05-14T14:34:12.167Z," 3592"
2018-05-14T14:39:08.333Z," 3524"
2018-05-14T14:44:04.151Z," 3476"
2018-05-14T14:49:00.063Z," 3380"
2018-05-14T14:53:55.826Z," 3272"
2018-05-14T14:58:52.222Z," 3272"
2018-05-14T15:03:49.240Z," 3276"
2018-05-14T15:08:44.974Z," 3204"
2018-05-14T15:13:41.597Z," 3148"
2018-05-14T15:18:37.819Z," 3144"
2018-05-14T15:23:34.102Z," 3088"
2018-05-14T15:28:30.132Z," 2916"
2018-05-14T15:33:26.145Z," 3004"
2018-05-14T15:38:22.052Z," 2988"
2018-05-14T15:43:17.996Z," 2972"
2018-05-14T15:48:15.094Z," 3092"
2018-05-14T15:53:10.942Z," 3052"
2018-05-14T15:58:08.005Z," 2908"
2018-05-14T16:03:03.773Z," 2868"
2018-05-14T16:08:00.904Z," 2888"
2018-05-14T16:12:56.532Z," 2928"
2018-05-14T16:17:53.268Z," 3056"
2018-05-14T16:22:49.096Z," 2848"
2018-05-14T16:27:45.150Z," 2676"
2018-05-14T16:32:41.227Z," 2572"
2018-05-14T16:37:38.159Z," 2296"
2018-05-14T16:42:33.667Z," 2316"
2018-05-14T16:47:30.471Z," 2176"
2018-05-14T16:52:25.932Z," 1852"
2018-05-14T16:57:23.170Z," 1716"
2018-05-14T17:02:18.600Z," 1740"
2018-05-14T17:07:14.334Z," 1904"
2018-05-14T17:12:10.533Z," 1960"
2018-05-14T17:17:07.429Z," 2008"
2018-05-14T17:22:03.294Z," 1804"
2018-05-14T17:27:00.254Z," 1640"
2018-05-14T17:31:56.834Z," 1668"
2018-05-14T17:36:53.376Z," 1664"
2018-05-14T17:41:48.662Z," 1720"
2018-05-14T17:46:45.844Z," 1668"
2018-05-14T17:51:41.798Z," 1592"
2018-05-14T17:56:37.731Z," 1512"
2018-05-14T18:01:33.525Z," 1428"
2018-05-14T18:06:29.377Z," 1320"
2018-05-14T18:11:25.263Z," 1228"
2018-05-14T18:16:21.034Z," 1136"
2018-05-14T18:21:16.997Z," 1032"
2018-05-14T18:26:13.045Z,"  928"
2018-05-14T18:31:09.800Z,"  824"
2018-05-14T18:36:06.636Z,"  720"
2018-05-14T18:41:02.095Z,"  624"
2018-05-14T18:45:58.860Z,"  532"
2018-05-14T18:50:54.428Z,"  436"
2018-05-14T18:55:50.368Z,"  344"
2018-05-14T19:00:49.502Z,"  268"
2018-05-14T19:05:44.616Z,"  196"
2018-05-14T19:10:41.215Z,"  144"
2018-05-14T19:15:36.655Z,"   92"
2018-05-14T19:20:32.527Z,"   64"
2018-05-14T19:25:28.223Z,"   36"
2018-05-14T19:30:25.561Z,"   20"
2018-05-14T19:35:21.149Z,"    8"
2018-05-14T19:40:16.700Z,"    4"
2018-05-14T19:45:12.557Z,"    0"
2018-05-14T19:50:08.623Z,"    0"
2018-05-14T19:55:05.358Z,"    0"
2018-05-14T20:00:00.990Z,"    0"
2018-05-14T20:04:56.591Z,"    0"
2018-05-14T20:09:53.773Z,"    0"
2018-05-14T20:14:49.488Z,"    0"
2018-05-14T20:19:45.756Z,"    0"
2018-05-14T20:24:41.571Z,"    0"
2018-05-14T20:29:37.300Z,"    0"
2018-05-14T20:34:34.711Z,"    0"
2018-05-14T20:39:30.760Z,"    0"
2018-05-14T20:44:27.545Z,"    0"
2018-05-14T20:49:23.893Z,"    0"
2018-05-14T20:54:20.352Z,"    0"
2018-05-14T20:59:15.781Z,"    0"
2018-05-14T21:04:12.548Z,"    0"
2018-05-14T21:09:09.060Z,"    0"
2018-05-14T21:14:04.716Z,"    0"
2018-05-14T21:19:00.775Z,"    0"
2018-05-14T21:23:56.713Z,"    0"
2018-05-14T21:28:53.569Z,"    0"
2018-05-14T21:33:50.152Z,"    0"
2018-05-14T21:38:45.681Z,"    0"
2018-05-14T21:43:41.741Z,"    0"
2018-05-14T21:48:38.634Z,"    0"
2018-05-14T21:53:34.277Z,"    0"
2018-05-14T21:58:30.992Z,"    0"
2018-05-14T22:03:27.365Z,"    0"
2018-05-14T22:08:22.952Z,"    0"
2018-05-14T22:13:19.161Z,"    0"
2018-05-14T22:18:15.037Z,"    0"
2018-05-14T22:23:10.896Z,"    0"
2018-05-14T22:28:06.544Z,"    0"
2018-05-14T22:33:02.213Z,"    0"
2018-05-14T22:37:57.986Z,"    0"
2018-05-14T22:42:53.771Z,"    0"
2018-05-14T22:47:50.644Z,"    0"
2018-05-14T22:52:46.338Z,"    0"
2018-05-14T22:57:42.959Z,"    0"
2018-05-14T23:02:38.294Z,"    0"
2018-05-14T23:07:35.704Z,"    0"
2018-05-14T23:12:32.333Z,"    0"
2018-05-14T23:17:28.280Z,"    0"
2018-05-14T23:22:24.171Z,"    0"
2018-05-14T23:27:20.202Z,"    0"
2018-05-14T23:32:16.057Z,"    0"
2018-05-14T23:37:11.716Z,"    0"
2018-05-14T23:42:08.296Z,"    0"
2018-05-14T23:47:04.779Z,"    0"
2018-05-14T23:52:00.260Z,"    0"
2018-05-14T23:56:57.214Z,"    0"
